createdAt,value
2023-03-12T00:02:07.390Z,97.12
2023-03-12T00:04:37.188Z,97.26
2023-03-12T00:07:11.456Z,97.11
2023-03-12T00:09:42.241Z,97.01
2023-03-12T00:12:12.590Z,97.02
2023-03-12T00:14:40.726Z,96.89
2023-03-12T00:17:08.548Z,96.72
2023-03-12T00:19:37.681Z,96.27
2023-03-12T00:22:04.958Z,96.21
2023-03-12T00:24:38.703Z,96.06
2023-03-12T00:27:09.544Z,95.98
2023-03-12T00:29:39.555Z,95.77
2023-03-12T00:32:13.525Z,95.31
2023-03-12T00:34:42.131Z,94.60
2023-03-12T00:37:16.319Z,94.55
2023-03-12T00:39:49.201Z,94.08
2023-03-12T00:42:20.841Z,93.61
2023-03-12T00:44:48.647Z,93.45
2023-03-12T00:47:22.514Z,93.85
2023-03-12T00:49:51.681Z,94.61
2023-03-12T00:52:21.886Z,95.10
2023-03-12T00:54:58.485Z,95.17
2023-03-12T00:57:32.362Z,94.83
2023-03-12T01:00:09.750Z,94.54
2023-03-12T01:02:45.616Z,94.29
2023-03-12T01:05:18.745Z,94.14
2023-03-12T01:07:52.336Z,94.33
2023-03-12T01:10:26.191Z,94.51
2023-03-12T01:13:00.186Z,94.99
2023-03-12T01:15:27.235Z,95.47
2023-03-12T01:17:58.832Z,95.79
2023-03-12T01:20:28.673Z,96.00
2023-03-12T01:22:56.706Z,96.25
2023-03-12T01:25:27.391Z,96.14
2023-03-12T01:27:56.222Z,96.35
2023-03-12T01:30:24.409Z,96.43
2023-03-12T01:32:51.921Z,96.32
2023-03-12T01:35:20.992Z,96.46
2023-03-12T01:37:48.554Z,96.42
2023-03-12T01:40:19.117Z,96.49
2023-03-12T01:42:58.760Z,96.59
2023-03-12T01:45:45.758Z,96.61
2023-03-12T01:48:18.736Z,96.71
2023-03-12T01:50:47.176Z,96.99
2023-03-12T01:53:17.171Z,97.31
2023-03-12T01:55:47.672Z,97.43
2023-03-12T01:58:14.902Z,97.53
2023-03-12T02:00:44.739Z,97.38
2023-03-12T02:03:15.207Z,97.45
2023-03-12T02:05:54.834Z,97.01
2023-03-12T02:08:27.032Z,96.86
2023-03-12T02:10:56.792Z,96.17
2023-03-12T02:13:26.176Z,95.53
2023-03-12T02:15:57.105Z,94.43
2023-03-12T02:18:24.122Z,94.14
2023-03-12T02:20:55.379Z,94.47
2023-03-12T02:23:41.212Z,94.33
2023-03-12T02:26:11.362Z,93.37
2023-03-12T02:28:43.639Z,93.06
2023-03-12T02:31:15.634Z,92.65
2023-03-12T02:33:47.809Z,92.70
2023-03-12T02:36:17.979Z,91.69
2023-03-12T02:38:49.629Z,90.56
2023-03-12T02:41:17.950Z,90.49
2023-03-12T02:43:47.865Z,90.23
2023-03-12T02:46:18.096Z,90.10
2023-03-12T02:48:46.813Z,89.57
2023-03-12T02:51:15.604Z,89.79
2023-03-12T02:53:43.866Z,89.88
2023-03-12T02:56:13.117Z,89.78
2023-03-12T02:58:43.751Z,89.94
2023-03-12T03:01:14.047Z,89.84
2023-03-12T03:03:41.346Z,89.68
2023-03-12T03:06:08.932Z,89.48
2023-03-12T03:08:43.318Z,89.55
2023-03-12T03:11:17.835Z,89.79
2023-03-12T03:13:44.939Z,89.33
2023-03-12T03:16:15.239Z,89.35
2023-03-12T03:18:46.073Z,89.58
2023-03-12T03:21:16.314Z,89.66
2023-03-12T03:23:48.929Z,89.27
2023-03-12T03:26:16.406Z,89.25
2023-03-12T03:28:47.786Z,89.41
2023-03-12T03:31:15.422Z,89.54
2023-03-12T03:33:43.680Z,89.59
2023-03-12T03:36:16.383Z,89.31
2023-03-12T03:38:51.874Z,88.49
2023-03-12T03:41:24.096Z,88.34
2023-03-12T03:43:52.871Z,87.91
2023-03-12T03:46:25.142Z,87.97
2023-03-12T03:48:58.880Z,88.02
2023-03-12T03:51:30.050Z,88.19
2023-03-12T03:54:02.834Z,88.75
2023-03-12T03:56:31.024Z,88.21
2023-03-12T03:59:06.170Z,86.33
2023-03-12T04:01:36.455Z,85.17
2023-03-12T04:04:05.051Z,84.47
2023-03-12T04:06:37.027Z,83.91
2023-03-12T04:09:05.197Z,83.78
2023-03-12T04:11:33.440Z,83.63
2023-03-12T04:14:04.477Z,83.41
2023-03-12T04:16:38.445Z,82.22
2023-03-12T04:19:07.653Z,81.80
2023-03-12T04:21:34.781Z,81.52
2023-03-12T04:24:05.418Z,81.79
2023-03-12T04:26:35.058Z,81.86
2023-03-12T04:32:10.810Z,80.46
2023-03-12T04:34:40.446Z,79.13
2023-03-12T04:37:15.137Z,79.06
2023-03-12T04:39:44.572Z,79.21
2023-03-12T04:42:13.814Z,79.18
2023-03-12T04:44:44.199Z,79.47
2023-03-12T04:47:19.757Z,79.21
2023-03-12T04:49:49.392Z,79.04
2023-03-12T04:52:19.104Z,78.83
2023-03-12T04:54:52.166Z,77.91
2023-03-12T04:57:21.810Z,77.51
2023-03-12T04:59:52.716Z,77.32
2023-03-12T05:02:23.807Z,76.94
2023-03-12T05:04:58.021Z,76.90
2023-03-12T05:07:31.950Z,77.39
2023-03-12T05:10:04.936Z,77.58
2023-03-12T05:12:37.199Z,77.32
2023-03-12T05:15:11.006Z,77.65
2023-03-12T05:17:43.316Z,78.08
2023-03-12T05:20:13.653Z,78.66
2023-03-12T05:22:42.485Z,78.60
2023-03-12T05:25:12.203Z,78.30
2023-03-12T05:27:43.600Z,78.33
2023-03-12T05:30:15.097Z,78.92
2023-03-12T05:32:50.502Z,78.92
2023-03-12T05:35:20.828Z,79.24
2023-03-12T05:37:49.316Z,78.99
2023-03-12T05:40:18.456Z,79.24
2023-03-12T05:42:54.040Z,79.51
2023-03-12T05:45:25.814Z,80.04
2023-03-12T05:47:59.181Z,80.07
2023-03-12T05:50:29.497Z,80.39
2023-03-12T05:52:58.661Z,80.70
2023-03-12T05:55:28.015Z,80.80
2023-03-12T05:58:06.053Z,81.44
2023-03-12T06:00:41.790Z,81.58
2023-03-12T06:03:14.526Z,81.79
2023-03-12T06:05:48.172Z,82.59
2023-03-12T06:08:20.367Z,82.29
2023-03-12T06:10:55.296Z,83.06
2023-03-12T06:13:29.269Z,83.06
2023-03-12T06:16:07.853Z,82.92
2023-03-12T06:18:39.335Z,82.88
2023-03-12T06:21:17.381Z,83.08
2023-03-12T06:23:51.266Z,83.89
2023-03-12T06:26:25.576Z,83.44
2023-03-12T06:29:00.956Z,83.25
2023-03-12T06:31:39.850Z,83.57
2023-03-12T06:34:12.425Z,83.61
2023-03-12T06:36:44.448Z,83.79
2023-03-12T06:39:17.225Z,83.41
2023-03-12T06:41:49.062Z,83.39
2023-03-12T06:44:22.831Z,83.83
2023-03-12T06:46:58.306Z,84.35
2023-03-12T06:49:33.682Z,84.06
2023-03-12T06:52:03.759Z,84.21
2023-03-12T06:54:35.594Z,85.46
2023-03-12T06:57:09.502Z,85.91
2023-03-12T06:59:42.385Z,86.23
2023-03-12T07:02:18.103Z,87.23
2023-03-12T07:04:50.631Z,87.45
2023-03-12T07:07:25.016Z,87.47
2023-03-12T07:10:01.637Z,87.19
2023-03-12T07:12:37.376Z,87.67
2023-03-12T07:15:12.707Z,87.41
2023-03-12T07:17:54.450Z,86.78
2023-03-12T07:20:27.282Z,86.34
2023-03-12T07:23:00.410Z,86.41
2023-03-12T07:25:34.035Z,86.23
2023-03-12T07:28:11.995Z,86.16
2023-03-12T07:30:50.379Z,84.42
2023-03-12T07:33:21.586Z,84.16
2023-03-12T07:35:58.112Z,84.70
2023-03-12T07:38:29.830Z,85.01
2023-03-12T07:41:10.911Z,84.58
2023-03-12T07:43:42.998Z,84.51
2023-03-12T07:46:21.392Z,84.59
2023-03-12T07:48:56.189Z,84.85
2023-03-12T07:51:30.924Z,84.21
2023-03-12T07:54:06.066Z,83.17
2023-03-12T07:56:44.571Z,83.76
2023-03-12T07:59:33.024Z,84.64
2023-03-12T08:02:08.529Z,84.72
2023-03-12T08:04:44.270Z,84.97
2023-03-12T08:07:21.426Z,85.91
2023-03-12T08:09:55.470Z,86.89
2023-03-12T08:12:29.824Z,86.89
2023-03-12T08:15:04.169Z,86.07
2023-03-12T08:17:44.106Z,86.36
2023-03-12T08:20:20.730Z,86.16
2023-03-12T08:22:54.800Z,85.87
2023-03-12T08:25:25.839Z,85.80
2023-03-12T08:28:00.578Z,85.15
2023-03-12T08:30:30.349Z,84.91
2023-03-12T08:33:06.787Z,85.51
2023-03-12T08:35:40.142Z,85.74
2023-03-12T08:38:13.049Z,85.47
2023-03-12T08:40:55.521Z,84.53
2023-03-12T08:43:30.014Z,84.32
2023-03-12T08:46:05.754Z,84.86
2023-03-12T08:48:38.603Z,85.05
2023-03-12T08:51:08.207Z,85.07
2023-03-12T08:53:41.779Z,85.50
2023-03-12T08:56:14.164Z,87.52
2023-03-12T08:58:50.086Z,87.99
2023-03-12T09:01:29.680Z,86.63
2023-03-12T09:04:04.407Z,85.76
2023-03-12T09:06:35.850Z,84.62
2023-03-12T09:09:06.588Z,84.81
2023-03-12T09:11:41.883Z,84.04
2023-03-12T09:15:00.907Z,83.86
2023-03-12T09:17:43.232Z,83.27
2023-03-12T09:20:20.053Z,83.07
2023-03-12T09:22:52.727Z,83.43
2023-03-12T09:25:34.175Z,83.13
2023-03-12T09:28:35.788Z,82.61
2023-03-12T09:31:10.990Z,81.93
2023-03-12T09:33:53.518Z,81.43
2023-03-12T09:36:26.065Z,80.80
2023-03-12T09:39:04.192Z,80.57
2023-03-12T09:41:41.907Z,80.71
2023-03-12T09:44:37.300Z,80.82
2023-03-12T09:47:34.213Z,79.62
2023-03-12T09:50:18.185Z,79.51
2023-03-12T09:53:10.636Z,79.44
2023-03-12T09:55:42.091Z,77.06
2023-03-12T09:58:32.656Z,77.09
2023-03-12T10:01:40.967Z,77.40
2023-03-12T10:04:27.934Z,77.17
2023-03-12T10:07:11.473Z,76.77
2023-03-12T10:10:35.895Z,76.60
2023-03-12T10:13:22.615Z,76.19
2023-03-12T10:16:15.973Z,76.36
2023-03-12T10:23:14.222Z,75.31
2023-03-12T10:26:14.727Z,74.92
2023-03-12T10:29:01.093Z,75.38
2023-03-12T10:32:16.885Z,73.76
2023-03-12T10:34:57.052Z,72.78
2023-03-12T10:37:58.802Z,71.93
2023-03-12T10:40:35.730Z,72.88
2023-03-12T10:43:07.504Z,72.97
2023-03-12T10:46:00.150Z,72.48
2023-03-12T10:48:37.383Z,71.88
2023-03-12T10:51:11.497Z,72.35
2023-03-12T10:53:44.897Z,71.98
2023-03-12T10:56:21.954Z,70.76
2023-03-12T10:58:53.739Z,68.85
2023-03-12T11:01:31.041Z,68.08
2023-03-12T11:04:30.237Z,68.33
2023-03-12T11:07:05.645Z,67.46
2023-03-12T11:09:43.050Z,68.04
2023-03-12T11:12:31.394Z,69.25
2023-03-12T11:15:38.685Z,67.69
2023-03-12T11:18:37.145Z,67.98
2023-03-12T11:21:20.197Z,68.76
2023-03-12T11:24:19.133Z,67.75
2023-03-12T11:27:37.606Z,67.04
2023-03-12T11:30:49.073Z,66.32
2023-03-12T11:33:29.504Z,66.09
2023-03-12T11:36:27.349Z,64.39
2023-03-12T11:39:23.084Z,64.25
2023-03-12T11:42:31.086Z,63.59
2023-03-12T11:45:18.392Z,63.76
2023-03-12T11:48:16.525Z,61.69
2023-03-12T11:51:51.268Z,62.54
2023-03-12T11:54:41.160Z,62.91
2023-03-12T11:57:17.756Z,61.08
2023-03-12T12:00:21.033Z,61.05
2023-03-12T12:03:01.175Z,61.48
2023-03-12T12:06:33.443Z,61.11
2023-03-12T12:09:27.197Z,61.05
2023-03-12T12:12:28.232Z,60.47
2023-03-12T12:15:20.881Z,59.63
2023-03-12T12:18:28.260Z,60.01
2023-03-12T12:21:19.430Z,58.66
2023-03-12T12:24:41.632Z,58.89
2023-03-12T12:27:25.842Z,56.99
2023-03-12T12:30:07.700Z,57.96
2023-03-12T12:33:01.792Z,58.15
2023-03-12T12:35:43.338Z,58.92
2023-03-12T12:38:39.217Z,58.87
2023-03-12T12:41:14.540Z,59.18
2023-03-12T12:44:27.306Z,59.47
2023-03-12T12:47:05.870Z,59.22
2023-03-12T12:49:59.824Z,57.94
2023-03-12T12:52:34.790Z,58.03
2023-03-12T12:55:24.693Z,55.37
2023-03-12T12:57:59.050Z,55.27
2023-03-12T13:00:52.353Z,54.38
2023-03-12T13:03:30.930Z,55.34
2023-03-12T13:06:24.540Z,55.20
2023-03-12T13:09:14.348Z,54.59
2023-03-12T13:11:51.724Z,53.31
2023-03-12T13:14:35.214Z,52.75
2023-03-12T13:17:22.259Z,53.38
2023-03-12T13:20:39.924Z,52.86
2023-03-12T13:23:21.162Z,53.70
2023-03-12T13:25:59.426Z,53.39
2023-03-12T13:28:35.947Z,52.97
2023-03-12T13:31:34.498Z,53.02
2023-03-12T13:34:20.477Z,52.59
2023-03-12T13:37:04.813Z,53.01
2023-03-12T13:39:38.154Z,53.31
2023-03-12T13:42:35.593Z,53.30
2023-03-12T13:45:31.932Z,52.61
2023-03-12T13:48:08.648Z,53.41
2023-03-12T13:50:41.252Z,53.07
2023-03-12T13:53:30.181Z,53.82
2023-03-12T13:56:46.349Z,53.61
2023-03-12T13:59:19.636Z,53.87
2023-03-12T14:01:52.298Z,53.44
2023-03-12T14:04:39.628Z,53.79
2023-03-12T14:07:24.330Z,54.25
2023-03-12T14:10:18.629Z,54.27
2023-03-12T14:13:12.500Z,54.70
2023-03-12T14:16:16.543Z,54.56
2023-03-12T14:18:53.141Z,54.61
2023-03-12T14:21:34.481Z,54.23
2023-03-12T14:24:08.444Z,54.31
2023-03-12T14:26:44.308Z,54.91
2023-03-12T14:29:36.110Z,54.39
2023-03-12T14:32:13.907Z,55.01
2023-03-12T14:34:47.565Z,55.06
2023-03-12T14:37:22.771Z,55.23
2023-03-12T14:39:55.787Z,55.04
2023-03-12T14:42:34.653Z,55.30
2023-03-12T14:45:27.756Z,55.56
2023-03-12T14:47:59.648Z,55.92
2023-03-12T14:50:40.605Z,55.47
2023-03-12T14:53:26.566Z,55.75
2023-03-12T14:56:29.636Z,55.53
2023-03-12T14:59:01.933Z,55.74
2023-03-12T15:01:39.725Z,54.52
2023-03-12T15:04:17.364Z,55.06
2023-03-12T15:06:56.003Z,54.94
2023-03-12T15:09:30.739Z,53.93
2023-03-12T15:12:08.689Z,54.43
2023-03-12T15:14:42.914Z,53.68
2023-03-12T15:17:19.909Z,53.55
2023-03-12T15:19:50.987Z,53.65
2023-03-12T15:22:28.634Z,53.71
2023-03-12T15:25:23.888Z,54.04
2023-03-12T15:28:19.849Z,54.47
2023-03-12T15:31:16.650Z,54.81
2023-03-12T15:34:00.087Z,54.29
2023-03-12T15:36:32.629Z,54.19
2023-03-12T15:39:38.180Z,54.31
2023-03-12T15:42:16.842Z,54.05
2023-03-12T15:45:03.704Z,54.31
2023-03-12T15:47:41.827Z,54.74
2023-03-12T15:50:51.160Z,54.92
2023-03-12T15:53:50.554Z,55.47
2023-03-12T15:56:25.510Z,55.92
2023-03-12T15:59:30.841Z,56.07
2023-03-12T16:02:06.191Z,56.77
2023-03-12T16:04:36.045Z,56.67
2023-03-12T16:07:13.308Z,56.91
2023-03-12T16:09:53.328Z,57.45
2023-03-12T16:12:52.729Z,58.00
2023-03-12T16:15:32.177Z,58.37
2023-03-12T16:18:16.781Z,58.42
2023-03-12T16:20:54.807Z,58.26
2023-03-12T16:23:27.284Z,58.41
2023-03-12T16:26:07.728Z,57.81
2023-03-12T16:28:45.744Z,58.15
2023-03-12T16:31:46.996Z,57.74
2023-03-12T16:34:22.079Z,58.37
2023-03-12T16:36:58.045Z,58.17
2023-03-12T16:39:55.757Z,58.24
2023-03-12T16:43:02.724Z,57.94
2023-03-12T16:46:01.346Z,58.26
2023-03-12T16:51:17.157Z,59.36
2023-03-12T16:54:06.849Z,60.18
2023-03-12T16:57:05.163Z,60.59
2023-03-12T16:59:38.180Z,61.07
2023-03-12T17:02:15.566Z,61.21
2023-03-12T17:04:52.821Z,61.42
2023-03-12T17:07:32.265Z,61.64
2023-03-12T17:10:08.178Z,62.05
2023-03-12T17:12:42.187Z,62.51
2023-03-12T17:15:36.988Z,62.99
2023-03-12T17:18:13.390Z,63.24
2023-03-12T17:20:58.156Z,63.68
2023-03-12T17:23:35.124Z,64.17
2023-03-12T17:26:16.589Z,64.28
2023-03-12T17:28:50.434Z,64.68
2023-03-12T17:31:24.747Z,65.03
2023-03-12T17:33:55.964Z,65.20
2023-03-12T17:36:31.555Z,65.05
2023-03-12T17:39:04.220Z,65.23
2023-03-12T17:41:42.066Z,65.44
2023-03-12T17:44:18.831Z,65.87
2023-03-12T17:46:59.982Z,65.72
2023-03-12T17:49:30.034Z,65.79
2023-03-12T17:52:03.428Z,66.32
2023-03-12T17:54:45.532Z,66.27
2023-03-12T17:57:19.554Z,66.58
2023-03-12T17:59:54.425Z,66.59
2023-03-12T18:02:23.102Z,66.61
2023-03-12T18:04:54.599Z,67.31
2023-03-12T18:07:25.958Z,67.76
2023-03-12T18:10:28.651Z,68.16
2023-03-12T18:13:29.759Z,68.06
2023-03-12T18:16:01.656Z,68.22
2023-03-12T18:18:30.779Z,68.41
2023-03-12T18:21:00.007Z,68.52
2023-03-12T18:23:57.462Z,68.60
2023-03-12T18:27:00.004Z,68.47
2023-03-12T18:29:46.287Z,68.47
2023-03-12T18:32:20.629Z,68.83
2023-03-12T18:34:52.894Z,68.74
2023-03-12T18:37:25.883Z,68.16
2023-03-12T18:39:59.541Z,68.38
2023-03-12T18:42:31.063Z,68.00
2023-03-12T18:45:32.927Z,67.71
2023-03-12T18:48:00.631Z,67.41
2023-03-12T18:50:34.131Z,67.61
2023-03-12T18:53:06.463Z,66.98
2023-03-12T18:55:43.312Z,66.88
2023-03-12T18:58:20.684Z,66.63
2023-03-12T19:00:53.769Z,66.45
2023-03-12T19:03:35.784Z,66.22
2023-03-12T19:06:11.078Z,66.33
2023-03-12T19:08:45.688Z,66.51
2023-03-12T19:11:14.817Z,66.56
2023-03-12T19:13:44.562Z,66.52
2023-03-12T19:16:45.940Z,66.41
2023-03-12T19:19:21.270Z,65.35
2023-03-12T19:21:50.571Z,63.17
2023-03-12T19:24:23.608Z,62.59
2023-03-12T19:26:55.001Z,61.45
2023-03-12T19:29:53.147Z,61.09
2023-03-12T19:32:42.418Z,61.20
2023-03-12T19:35:17.008Z,61.11
2023-03-12T19:37:52.222Z,60.57
2023-03-12T19:40:22.883Z,60.35
2023-03-12T19:42:54.551Z,60.03
2023-03-12T19:45:25.698Z,59.71
2023-03-12T19:48:03.563Z,59.56
2023-03-12T19:50:37.602Z,59.79
2023-03-12T19:53:14.695Z,59.92
2023-03-12T19:55:50.605Z,60.36
2023-03-12T19:58:30.417Z,60.68
2023-03-12T20:01:04.888Z,60.54
2023-03-12T20:03:42.420Z,60.42
2023-03-12T20:06:12.707Z,60.43
2023-03-12T20:08:42.231Z,60.81
2023-03-12T20:11:23.237Z,60.93
2023-03-12T20:13:54.517Z,60.70
2023-03-12T20:16:23.236Z,61.35
2023-03-12T20:18:57.007Z,61.33
2023-03-12T20:21:28.408Z,61.11
2023-03-12T20:24:08.867Z,61.52
2023-03-12T20:26:46.633Z,61.51
2023-03-12T20:29:17.864Z,61.64
2023-03-12T20:32:04.904Z,61.43
2023-03-12T20:34:33.963Z,60.97
2023-03-12T20:37:08.792Z,61.13
2023-03-12T20:39:38.548Z,61.24
2023-03-12T20:42:09.809Z,61.39
2023-03-12T20:44:39.103Z,61.25
2023-03-12T20:47:09.329Z,60.79
2023-03-12T20:49:43.238Z,60.74
2023-03-12T20:52:21.808Z,60.68
2023-03-12T20:54:52.781Z,60.79
2023-03-12T20:57:56.826Z,60.91
2023-03-12T21:00:36.850Z,61.20
2023-03-12T21:03:16.368Z,61.11
2023-03-12T21:06:07.696Z,60.84
2023-03-12T21:08:37.212Z,61.11
2023-03-12T21:11:09.983Z,61.39
2023-03-12T21:13:45.894Z,61.06
2023-03-12T21:16:29.584Z,61.33
2023-03-12T21:18:58.625Z,61.42
2023-03-12T21:21:35.984Z,61.63
2023-03-12T21:24:08.144Z,61.80
2023-03-12T21:26:39.449Z,61.68
2023-03-12T21:29:15.356Z,61.46
2023-03-12T21:31:45.773Z,61.39
2023-03-12T21:34:14.120Z,61.38
2023-03-12T21:36:43.845Z,61.46
2023-03-12T21:39:14.476Z,61.44
2023-03-12T21:41:43.746Z,61.60
2023-03-12T21:44:17.550Z,61.96
2023-03-12T21:46:49.044Z,62.10
2023-03-12T21:49:18.974Z,62.13
2023-03-12T21:51:47.817Z,62.01
2023-03-12T21:54:17.650Z,61.63
2023-03-12T21:56:49.090Z,61.69
2023-03-12T21:59:25.070Z,61.67
2023-03-12T22:01:55.759Z,61.57
2023-03-12T22:04:24.187Z,61.94
2023-03-12T22:06:58.590Z,61.92
2023-03-12T22:09:31.337Z,62.00
2023-03-12T22:12:00.963Z,62.16
2023-03-12T22:14:54.716Z,62.08
2023-03-12T22:17:21.872Z,62.17
2023-03-12T22:19:58.277Z,61.81
2023-03-12T22:22:27.355Z,61.43
2023-03-12T22:24:56.865Z,61.26
2023-03-12T22:27:26.461Z,61.07
2023-03-12T22:29:56.946Z,61.15
2023-03-12T22:32:27.719Z,61.15
2023-03-12T22:35:00.295Z,61.63
2023-03-12T22:37:32.984Z,61.70
2023-03-12T22:40:06.543Z,61.95
2023-03-12T22:42:40.447Z,61.93
2023-03-12T22:45:10.300Z,61.98
2023-03-12T22:47:41.975Z,61.75
2023-03-12T22:50:12.254Z,62.09
2023-03-12T22:52:46.839Z,62.01
2023-03-12T22:55:19.604Z,61.59
2023-03-12T22:57:46.970Z,61.59
2023-03-12T23:00:18.222Z,61.71
2023-03-12T23:02:47.865Z,62.18
2023-03-12T23:05:20.117Z,62.38
2023-03-12T23:07:54.354Z,62.45
2023-03-12T23:10:23.141Z,62.53
2023-03-12T23:12:57.106Z,62.79
2023-03-12T23:15:40.514Z,62.59
2023-03-12T23:18:11.883Z,62.39
2023-03-12T23:20:42.152Z,62.38
2023-03-12T23:23:15.024Z,62.48
2023-03-12T23:25:51.139Z,62.43
2023-03-12T23:28:28.261Z,62.49
2023-03-12T23:31:02.123Z,62.71
2023-03-12T23:33:33.783Z,62.63
2023-03-12T23:36:19.568Z,62.66
2023-03-12T23:38:52.765Z,62.80
2023-03-12T23:41:31.161Z,62.94
2023-03-12T23:43:58.653Z,63.41
2023-03-12T23:46:29.575Z,63.20
2023-03-12T23:49:01.779Z,62.94
2023-03-12T23:51:33.253Z,62.94
2023-03-12T23:54:05.143Z,63.08
2023-03-12T23:56:39.143Z,63.03
2023-03-12T23:59:13.100Z,62.93
